To NAV CANADA Home Page Login to a new session Search on AWWS site Feedback and Comments Disclaimer Vers la page française équivalente Tips FAQ What's new on the site To the Forecasts and Observations / NOTAM section To "File a Flight Plan" website Publications and other links Update of the User's profile FIC Telephone Numbers My Weather Data Folder Route Weather Data Regional Weather Data Local Weather Data To the Forecasts and Observations / NOTAM section
Request Generated 08/28/2016 at 06:49:01 UTC . Weather information available at that time is displayed.

METAR/TAF

SAINT JOHN/NB    

METAR CYSJ 280600Z 00000KT 15SM SKC 08/08 A3029 RMK SLP259=
METAR CYSJ 280500Z 00000KT 15SM SKC 09/09 A3028 RMK SLP258=
METAR CYSJ 280400Z 00000KT 15SM SKC 10/10 A3028 RMK SLP257=

TAF CYSJ 280538Z 2806/2818 VRB03KT P6SM FEW240 PROB30 2807/2812 3/4SM
BR SCT002
FM281200 VRB03KT P6SM FEW050 BKN160
BECMG 2812/2814 18007KT
RMK NXT FCST BY 281200Z=
Your time UTC time
Weather data provided by Environment Canada and NAV CANADA